MA72 weather

Public forecast

Using degrees Fahrenheit for public forecast. Weather courtesy of forecast.io.

Closest aviation weather report (METAR) to Tuckernuck Airport

Closest report is Nantucket Memorial Airport, 9.4 nm (17.4 km) ESE. Retrieved 2020/08/15 14:53 UTC (41 minutes ago):

KACK 151453Z 03016G25KT 10SM BKN013 OVC019 23/18 A2999 RMK AO2 PK WND 02026/1436 SLP156 T02280183 51016

Closest aviation forecast (TAF) to Tuckernuck Airport

Closest forecast is Nantucket Memorial Airport, 9.4 nm (17.4 km) ESE. Retrieved 2020/08/15 12:22 UTC (3 hours ago):

TAF KACK 151120Z 1512/1612 03014G28KT P6SM BKN015 FM151400 03018G29KT P6SM BKN010 FM151900 03020G31KT P6SM OVC015 FM160000 04011G22KT P6SM BKN015 FM160600 05011KT P6SM OVC020